createdAt,value
2023-04-03T00:01:28.856Z,3.97
2023-04-03T00:03:57.512Z,3.60
2023-04-03T00:06:27.620Z,3.53
2023-04-03T00:08:56.030Z,3.92
2023-04-03T00:11:24.394Z,3.63
2023-04-03T00:13:52.902Z,2.85
2023-04-03T00:16:21.388Z,3.95
2023-04-03T00:18:49.755Z,4.05
2023-04-03T00:21:18.132Z,3.55
2023-04-03T00:23:47.881Z,3.90
2023-04-03T00:26:16.199Z,3.30
2023-04-03T00:28:44.591Z,3.25
2023-04-03T00:31:12.967Z,2.78
2023-04-03T00:33:41.292Z,4.20
2023-04-03T00:36:11.723Z,3.03
2023-04-03T00:38:41.942Z,3.88
2023-04-03T00:41:11.609Z,3.65
2023-04-03T00:43:39.965Z,3.53
2023-04-03T00:46:08.241Z,3.50
2023-04-03T00:48:38.546Z,2.90
2023-04-03T00:51:08.735Z,3.70
2023-04-03T00:53:41.706Z,3.50
2023-04-03T00:56:15.116Z,3.47
2023-04-03T00:58:47.022Z,3.03
2023-04-03T01:01:19.045Z,3.20
2023-04-03T01:03:47.386Z,3.25
2023-04-03T01:06:18.747Z,3.08
2023-04-03T01:08:48.016Z,2.33
2023-04-03T01:11:17.818Z,3.47
2023-04-03T01:13:46.169Z,3.07
2023-04-03T01:16:14.444Z,3.38
2023-04-03T01:18:43.078Z,3.38
2023-04-03T01:21:58.708Z,3.20
2023-04-03T01:24:34.887Z,2.53
2023-04-03T01:27:06.838Z,3.42
2023-04-03T01:29:35.124Z,2.97
2023-04-03T01:32:05.839Z,2.83
2023-04-03T01:34:34.131Z,2.80
2023-04-03T01:37:02.599Z,2.90
2023-04-03T01:39:30.884Z,2.78
2023-04-03T01:42:00.304Z,2.97
2023-04-03T01:44:28.643Z,2.78
2023-04-03T01:46:56.885Z,2.60
2023-04-03T01:49:26.726Z,3.03
2023-04-03T01:51:55.002Z,2.83
2023-04-03T01:54:23.376Z,3.00
2023-04-03T01:56:51.665Z,2.50
2023-04-03T01:59:20.281Z,2.20
2023-04-03T02:01:48.601Z,2.67
2023-04-03T02:04:16.937Z,2.78
2023-04-03T02:06:46.620Z,2.70
2023-04-03T02:09:15.002Z,2.27
2023-04-03T02:11:43.358Z,2.95
2023-04-03T02:14:11.606Z,3.22
2023-04-03T02:16:40.071Z,2.38
2023-04-03T02:19:08.410Z,2.30
2023-04-03T02:21:36.771Z,2.47
2023-04-03T02:24:07.414Z,1.95
2023-04-03T02:29:03.803Z,2.28
2023-04-03T02:31:32.160Z,2.50
2023-04-03T02:34:00.524Z,2.67
2023-04-03T02:36:30.085Z,2.45
2023-04-03T02:41:34.623Z,2.78
2023-04-03T02:44:02.943Z,2.50
2023-04-03T02:46:31.253Z,2.20
2023-04-03T02:48:59.663Z,2.22
2023-04-03T02:51:27.915Z,1.55
2023-04-03T02:53:56.144Z,1.63
2023-04-03T02:56:24.427Z,2.63
2023-04-03T02:58:54.261Z,1.92
2023-04-03T03:01:22.690Z,2.13
2023-04-03T03:03:51.034Z,2.63
2023-04-03T03:06:19.773Z,2.70
2023-04-03T03:08:48.016Z,2.58
2023-04-03T03:11:16.493Z,1.77
2023-04-03T03:13:44.743Z,2.53
2023-04-03T03:16:14.515Z,2.05
2023-04-03T03:18:42.854Z,1.73
2023-04-03T03:21:11.599Z,1.58
2023-04-03T03:23:39.920Z,2.08
2023-04-03T03:26:10.542Z,2.63
2023-04-03T03:31:07.495Z,2.67
2023-04-03T03:33:37.820Z,2.47
2023-04-03T03:36:06.600Z,2.42
2023-04-03T03:38:35.006Z,2.70
2023-04-03T03:41:03.329Z,1.83
2023-04-03T03:43:31.621Z,2.35
2023-04-03T03:45:59.905Z,2.50
2023-04-03T03:48:28.181Z,2.67
2023-04-03T03:50:57.806Z,2.38
2023-04-03T03:53:26.598Z,2.80
2023-04-03T03:55:54.923Z,2.60
2023-04-03T03:58:23.330Z,3.05
2023-04-03T04:00:51.702Z,1.98
2023-04-03T04:03:20.154Z,2.60
2023-04-03T04:05:48.590Z,2.72
2023-04-03T04:08:18.271Z,3.20
2023-04-03T04:10:46.553Z,2.70
2023-04-03T04:13:14.789Z,2.60
2023-04-03T04:15:43.053Z,2.08
2023-04-03T04:18:11.422Z,2.85
2023-04-03T04:20:39.666Z,2.70
2023-04-03T04:23:07.942Z,2.30
2023-04-03T04:25:37.928Z,2.80
2023-04-03T04:28:06.945Z,2.20
2023-04-03T04:30:35.300Z,1.80
2023-04-03T04:33:03.767Z,2.20
2023-04-03T04:35:32.213Z,2.58
2023-04-03T04:38:00.857Z,3.03
2023-04-03T04:40:29.390Z,2.80
2023-04-03T04:42:59.123Z,3.30
2023-04-03T04:45:27.412Z,2.80
2023-04-03T04:47:57.396Z,3.03
2023-04-03T04:50:25.821Z,2.92
2023-04-03T04:52:54.112Z,3.50
2023-04-03T04:55:22.437Z,2.35
2023-04-03T04:57:50.739Z,2.33
2023-04-03T05:00:21.500Z,2.53
2023-04-03T05:02:49.883Z,3.35
2023-04-03T05:05:18.560Z,1.48
2023-04-03T05:07:46.935Z,2.67
2023-04-03T05:10:15.181Z,2.50
2023-04-03T05:12:43.455Z,1.73
2023-04-03T05:15:12.431Z,2.33
2023-04-03T05:17:42.198Z,3.35
2023-04-03T05:20:11.577Z,1.88
2023-04-03T05:22:39.886Z,2.85
2023-04-03T05:25:09.158Z,3.05
2023-04-03T05:27:37.482Z,2.33
2023-04-03T05:30:07.001Z,3.25
2023-04-03T05:32:35.296Z,2.92
2023-04-03T05:35:05.343Z,3.03
2023-04-03T05:37:33.938Z,3.22
2023-04-03T05:40:02.729Z,3.60
2023-04-03T05:42:31.053Z,3.15
2023-04-03T05:44:59.581Z,3.28
2023-04-03T05:47:27.983Z,3.70
2023-04-03T05:49:56.285Z,3.58
2023-04-03T05:52:28.860Z,2.15
2023-04-03T05:54:57.863Z,3.40
2023-04-03T05:57:26.299Z,3.45
2023-04-03T05:59:54.562Z,3.05
2023-04-03T06:02:25.006Z,3.35
2023-04-03T06:04:53.718Z,3.50
2023-04-03T06:07:23.822Z,2.88
2023-04-03T06:09:53.962Z,3.47
2023-04-03T06:12:22.627Z,2.80
2023-04-03T06:14:51.256Z,4.03
2023-04-03T06:17:20.172Z,2.35
2023-04-03T06:19:49.020Z,3.33
2023-04-03T06:22:17.552Z,3.67
2023-04-03T06:24:45.788Z,2.78
2023-04-03T06:27:15.796Z,3.88
2023-04-03T06:29:44.220Z,2.67
2023-04-03T06:32:12.480Z,3.83
2023-04-03T06:34:40.795Z,3.08
2023-04-03T06:37:09.314Z,3.13
2023-04-03T06:39:37.658Z,2.63
2023-04-03T06:42:06.065Z,3.25
2023-04-03T06:44:35.933Z,4.03
2023-04-03T06:47:04.334Z,3.08
2023-04-03T06:49:32.931Z,3.35
2023-04-03T06:52:02.657Z,3.92
2023-04-03T06:54:31.274Z,3.70
2023-04-03T06:56:59.773Z,2.95
2023-04-03T06:59:28.202Z,4.70
2023-04-03T07:01:59.664Z,3.85
2023-04-03T07:04:28.358Z,4.43
2023-04-03T07:06:56.750Z,3.95
2023-04-03T07:09:25.186Z,4.07
2023-04-03T07:11:53.577Z,4.47
2023-04-03T07:14:22.354Z,4.80
2023-04-03T07:16:50.756Z,4.07
2023-04-03T07:19:20.405Z,3.88
2023-04-03T07:21:49.257Z,3.00
2023-04-03T07:24:17.504Z,4.00
2023-04-03T07:26:46.323Z,3.97
2023-04-03T07:29:15.084Z,3.75
2023-04-03T07:31:43.581Z,4.03
2023-04-03T07:34:11.917Z,4.68
2023-04-03T07:36:41.756Z,4.35
2023-04-03T07:39:10.006Z,5.97
2023-04-03T07:41:38.563Z,3.38
2023-04-03T07:44:07.050Z,3.53
2023-04-03T07:46:35.455Z,4.63
2023-04-03T07:49:03.987Z,4.78
2023-04-03T07:51:32.404Z,4.88
2023-04-03T07:54:02.122Z,4.60
2023-04-03T07:56:30.448Z,4.27
2023-04-03T07:58:58.838Z,4.68
2023-04-03T08:01:27.193Z,3.50
2023-04-03T08:03:55.934Z,4.45
2023-04-03T08:06:37.430Z,3.28
2023-04-03T08:09:12.417Z,4.03
2023-04-03T08:11:41.084Z,4.40
2023-04-03T08:14:11.993Z,4.10
2023-04-03T08:16:40.452Z,3.88
2023-04-03T08:19:15.109Z,4.57
2023-04-03T08:21:47.930Z,4.32
2023-04-03T08:24:17.602Z,2.90
2023-04-03T08:26:45.904Z,3.60
2023-04-03T08:29:14.489Z,4.65
2023-04-03T08:31:42.813Z,3.85
2023-04-03T08:34:11.142Z,3.80
2023-04-03T08:36:39.540Z,4.43
2023-04-03T08:39:07.865Z,6.00
2023-04-03T08:41:40.731Z,3.85
2023-04-03T08:44:17.948Z,4.20
2023-04-03T08:46:57.898Z,3.85
2023-04-03T08:49:29.884Z,3.90
2023-04-03T08:51:58.426Z,3.60
2023-04-03T08:54:31.909Z,3.05
2023-04-03T08:57:04.800Z,3.95
2023-04-03T08:59:35.757Z,2.92
2023-04-03T09:02:23.838Z,2.67
2023-04-03T09:04:52.201Z,3.50
2023-04-03T09:07:24.878Z,2.53
2023-04-03T09:09:54.174Z,2.95
2023-04-03T09:12:27.709Z,4.00
2023-04-03T09:15:02.770Z,2.85
2023-04-03T09:17:39.656Z,2.60
2023-04-03T09:20:18.967Z,2.00
2023-04-03T09:22:52.407Z,3.10
2023-04-03T09:25:23.801Z,2.70
2023-04-03T09:30:24.409Z,2.67
2023-04-03T09:32:54.930Z,3.08
2023-04-03T09:35:32.849Z,2.80
2023-04-03T09:38:22.016Z,2.20
2023-04-03T09:40:52.162Z,1.88
2023-04-03T09:43:30.568Z,3.15
2023-04-03T09:46:20.671Z,2.00
2023-04-03T09:49:05.100Z,2.15
2023-04-03T09:51:37.815Z,2.28
2023-04-03T09:54:28.413Z,2.13
2023-04-03T09:56:57.664Z,2.17
2023-04-03T09:59:27.452Z,1.77
2023-04-03T10:02:02.991Z,2.70
2023-04-03T10:04:40.424Z,1.83
2023-04-03T10:07:31.403Z,1.90
2023-04-03T10:10:00.260Z,2.20
2023-04-03T10:12:28.536Z,2.20
2023-04-03T10:14:59.647Z,2.42
2023-04-03T10:17:36.800Z,1.98
2023-04-03T10:20:12.903Z,2.17
2023-04-03T10:22:56.182Z,1.95
2023-04-03T10:25:33.234Z,1.35
2023-04-03T10:28:03.854Z,1.85
2023-04-03T10:33:31.036Z,1.95
2023-04-03T10:36:10.483Z,1.70
2023-04-03T10:38:45.535Z,1.75
2023-04-03T10:41:21.116Z,1.77
2023-04-03T10:43:56.380Z,1.40
2023-04-03T10:46:30.621Z,1.95
2023-04-03T10:49:13.037Z,1.80
2023-04-03T10:51:44.491Z,1.48
2023-04-03T10:54:15.215Z,1.63
2023-04-03T10:56:45.209Z,1.10
2023-04-03T10:59:25.478Z,1.35
2023-04-03T11:01:58.607Z,1.35
2023-04-03T11:04:29.860Z,1.05
2023-04-03T11:07:01.998Z,1.15
2023-04-03T11:09:32.301Z,1.10
2023-04-03T11:12:04.717Z,1.20
2023-04-03T11:14:35.768Z,1.13
2023-04-03T11:17:09.429Z,0.93
2023-04-03T11:19:41.486Z,1.30
2023-04-03T11:22:14.884Z,1.40
2023-04-03T11:24:45.291Z,1.20
2023-04-03T11:27:19.659Z,1.50
2023-04-03T11:29:48.653Z,1.25
2023-04-03T11:32:38.153Z,1.73
2023-04-03T11:35:08.398Z,1.10
2023-04-03T11:37:37.815Z,1.30
2023-04-03T11:40:10.110Z,1.52
2023-04-03T11:42:39.965Z,1.30
2023-04-03T11:45:33.891Z,1.02
2023-04-03T11:48:16.580Z,1.38
2023-04-03T11:50:52.321Z,1.20
2023-04-03T11:53:33.301Z,1.30
2023-04-03T11:56:03.443Z,1.20
2023-04-03T11:58:33.835Z,1.50
2023-04-03T12:01:08.581Z,1.40
2023-04-03T12:04:06.774Z,1.10
2023-04-03T12:07:23.226Z,1.10
2023-04-03T12:10:01.969Z,1.40
2023-04-03T12:12:37.012Z,1.25
2023-04-03T12:15:22.409Z,1.70
2023-04-03T12:17:51.689Z,1.80
2023-04-03T12:21:03.998Z,1.25
2023-04-03T12:23:34.066Z,1.50
2023-04-03T12:26:07.787Z,1.40
2023-04-03T12:28:41.552Z,1.40
2023-04-03T12:31:12.649Z,1.33
2023-04-03T12:33:58.724Z,1.40
2023-04-03T12:36:33.022Z,1.17
2023-04-03T12:39:13.559Z,1.42
2023-04-03T12:41:50.609Z,1.20
2023-04-03T12:44:29.472Z,1.42
2023-04-03T12:47:01.956Z,1.30
2023-04-03T12:49:38.353Z,1.55
2023-04-03T12:52:08.470Z,1.08
2023-04-03T12:54:38.810Z,1.17
2023-04-03T12:57:19.070Z,1.63
2023-04-03T12:59:48.233Z,1.48
2023-04-03T13:02:24.400Z,0.98
2023-04-03T13:04:53.383Z,1.40
2023-04-03T13:07:26.548Z,1.20
2023-04-03T13:10:00.166Z,1.73
2023-04-03T13:12:30.683Z,1.20
2023-04-03T13:15:05.211Z,1.38
2023-04-03T13:17:33.656Z,1.13
2023-04-03T13:20:13.296Z,1.50
2023-04-03T13:22:45.083Z,1.27
2023-04-03T13:25:15.950Z,1.33
2023-04-03T13:27:46.037Z,1.60
2023-04-03T13:30:27.249Z,1.20
2023-04-03T13:32:56.317Z,1.00
2023-04-03T13:35:36.864Z,1.50
2023-04-03T13:38:08.831Z,1.30
2023-04-03T13:40:49.789Z,1.20
2023-04-03T13:43:26.326Z,1.05
2023-04-03T13:46:05.924Z,1.30
2023-04-03T13:48:40.452Z,0.95
2023-04-03T13:51:20.111Z,1.50
2023-04-03T13:53:51.124Z,1.27
2023-04-03T13:56:23.329Z,1.60
2023-04-03T13:59:03.222Z,0.90
2023-04-03T14:01:43.826Z,1.00
2023-04-03T14:06:41.611Z,1.00
2023-04-03T14:09:10.017Z,0.95
2023-04-03T14:11:38.436Z,1.50
2023-04-03T14:14:14.935Z,1.50
2023-04-03T14:16:45.788Z,1.30
2023-04-03T14:19:20.167Z,1.10
2023-04-03T14:21:48.816Z,1.15
2023-04-03T14:24:17.548Z,1.20
2023-04-03T14:26:46.209Z,1.23
2023-04-03T14:29:16.626Z,0.80
2023-04-03T14:31:46.150Z,1.15
2023-04-03T14:34:15.104Z,0.90
2023-04-03T14:36:44.887Z,1.23
2023-04-03T14:39:19.878Z,0.93
2023-04-03T14:41:48.328Z,1.13
2023-04-03T14:44:17.951Z,1.05
2023-04-03T14:46:56.363Z,1.27
2023-04-03T14:49:29.160Z,1.30
2023-04-03T14:51:58.089Z,1.10
2023-04-03T14:54:28.796Z,1.13
2023-04-03T14:56:59.326Z,1.30
2023-04-03T14:59:29.387Z,0.90
2023-04-03T15:01:57.861Z,1.23
2023-04-03T15:04:26.786Z,1.00
2023-04-03T15:06:55.410Z,1.08
2023-04-03T15:09:25.144Z,1.08
2023-04-03T15:11:54.743Z,1.00
2023-04-03T15:14:35.850Z,1.27
2023-04-03T15:17:07.437Z,1.30
2023-04-03T15:19:39.592Z,1.25
2023-04-03T15:22:08.259Z,1.20
2023-04-03T15:24:36.540Z,1.35
2023-04-03T15:27:04.897Z,1.52
2023-04-03T15:29:33.243Z,1.23
2023-04-03T15:32:01.602Z,1.08
2023-04-03T15:34:32.256Z,1.20
2023-04-03T15:39:29.270Z,1.08
2023-04-03T15:42:00.781Z,1.20
2023-04-03T15:44:29.135Z,1.20
2023-04-03T15:46:57.425Z,1.23
2023-04-03T15:49:25.793Z,1.30
2023-04-03T15:51:55.566Z,0.82
2023-04-03T15:54:25.033Z,1.10
2023-04-03T15:56:53.444Z,1.40
2023-04-03T15:59:21.875Z,1.40
2023-04-03T16:01:51.127Z,1.15
2023-04-03T16:04:20.653Z,1.05
2023-04-03T16:06:49.042Z,0.98
2023-04-03T16:09:18.987Z,1.27
2023-04-03T16:11:47.275Z,1.20
2023-04-03T16:14:15.715Z,1.27
2023-04-03T16:16:43.994Z,1.30
2023-04-03T16:19:12.389Z,1.30
2023-04-03T16:21:40.981Z,1.10
2023-04-03T16:24:09.373Z,1.08
2023-04-03T16:26:39.021Z,1.63
2023-04-03T16:29:07.307Z,1.63
2023-04-03T16:31:35.795Z,1.13
2023-04-03T16:34:04.187Z,1.40
2023-04-03T16:36:32.586Z,0.95
2023-04-03T16:39:00.854Z,0.98
2023-04-03T16:41:29.061Z,1.58
2023-04-03T16:43:58.688Z,1.60
2023-04-03T16:46:27.004Z,1.27
2023-04-03T16:48:55.448Z,1.40
2023-04-03T16:51:23.981Z,1.50
2023-04-03T16:53:52.275Z,1.70
2023-04-03T16:56:21.190Z,1.70
2023-04-03T16:58:49.536Z,1.15
2023-04-03T17:01:20.471Z,1.60
2023-04-03T17:03:49.022Z,1.17
2023-04-03T17:06:19.836Z,0.93
2023-04-03T17:08:50.088Z,1.48
2023-04-03T17:11:18.642Z,1.52
2023-04-03T17:13:46.874Z,1.73
2023-04-03T17:16:16.524Z,1.50
2023-04-03T17:18:46.856Z,1.57
2023-04-03T17:21:15.535Z,1.75
2023-04-03T17:23:45.729Z,1.77
2023-04-03T17:26:14.443Z,1.55
2023-04-03T17:28:44.207Z,2.00
2023-04-03T17:31:13.824Z,0.95
2023-04-03T17:33:42.115Z,1.45
2023-04-03T17:36:12.032Z,1.90
2023-04-03T17:38:40.397Z,1.83
2023-04-03T17:41:09.872Z,2.05
2023-04-03T17:43:38.202Z,2.45
2023-04-03T17:46:09.121Z,2.00
2023-04-03T17:48:38.758Z,1.60
2023-04-03T17:51:07.991Z,1.95
2023-04-03T17:53:37.719Z,1.90
2023-04-03T17:56:09.325Z,1.97
2023-04-03T17:58:37.634Z,1.70
2023-04-03T18:01:10.777Z,1.50
2023-04-03T18:03:39.249Z,2.10
2023-04-03T18:06:10.409Z,1.38
2023-04-03T18:08:42.871Z,1.70
2023-04-03T18:11:11.537Z,1.40
2023-04-03T18:13:40.069Z,1.70
2023-04-03T18:16:09.817Z,1.80
2023-04-03T18:18:38.248Z,1.37
2023-04-03T18:21:06.854Z,1.40
2023-04-03T18:23:36.613Z,1.23
2023-04-03T18:26:08.561Z,1.70
2023-04-03T18:28:36.866Z,1.80
2023-04-03T18:31:05.216Z,1.50
2023-04-03T18:33:33.658Z,1.70
2023-04-03T18:36:01.962Z,1.42
2023-04-03T18:38:30.218Z,1.90
2023-04-03T18:40:58.560Z,1.73
2023-04-03T18:43:28.206Z,1.50
2023-04-03T18:45:56.734Z,1.67
2023-04-03T18:48:25.955Z,1.80
2023-04-03T18:50:55.066Z,1.95
2023-04-03T18:53:23.412Z,2.17
2023-04-03T18:55:51.646Z,1.63
2023-04-03T18:58:20.004Z,2.00
2023-04-03T19:00:49.670Z,2.30
2023-04-03T19:03:18.026Z,1.33
2023-04-03T19:05:46.973Z,1.70
2023-04-03T19:08:15.685Z,1.88
2023-04-03T19:10:44.358Z,1.58
2023-04-03T19:13:12.664Z,1.33
2023-04-03T19:15:40.973Z,1.48
2023-04-03T19:18:10.693Z,1.98
2023-04-03T19:20:39.047Z,1.53
2023-04-03T19:23:08.733Z,1.60
2023-04-03T19:25:38.222Z,1.67
2023-04-03T19:28:06.700Z,2.08
2023-04-03T19:30:34.995Z,2.03
2023-04-03T19:33:03.377Z,1.67
2023-04-03T19:35:33.019Z,1.92
2023-04-03T19:38:01.305Z,1.70
2023-04-03T19:40:32.388Z,1.80
2023-04-03T19:43:00.783Z,1.60
2023-04-03T19:45:30.414Z,1.70
2023-04-03T19:48:01.375Z,1.90
2023-04-03T19:50:29.813Z,2.08
2023-04-03T19:53:00.052Z,2.00
2023-04-03T19:55:31.521Z,1.70
2023-04-03T19:58:00.573Z,1.60
2023-04-03T20:00:29.786Z,1.73
2023-04-03T20:02:58.264Z,1.27
2023-04-03T20:05:26.585Z,1.80
2023-04-03T20:07:55.918Z,1.77
2023-04-03T20:10:53.437Z,1.77
2023-04-03T20:13:22.393Z,1.30
2023-04-03T20:15:50.736Z,1.80
2023-04-03T20:18:20.802Z,1.83
2023-04-03T20:20:54.533Z,1.80
2023-04-03T20:23:23.016Z,1.70
2023-04-03T20:26:02.036Z,1.20
2023-04-03T20:28:38.030Z,1.85
2023-04-03T20:31:07.889Z,1.50
2023-04-03T20:33:37.255Z,1.70
2023-04-03T20:36:05.635Z,1.60
2023-04-03T20:38:33.976Z,2.10
2023-04-03T20:41:04.546Z,1.70
2023-04-03T20:46:01.580Z,2.10
2023-04-03T20:48:31.210Z,1.70
2023-04-03T20:50:59.494Z,1.58
2023-04-03T20:53:28.346Z,1.60
2023-04-03T20:55:59.860Z,1.42
2023-04-03T20:58:33.049Z,1.75
2023-04-03T21:01:01.849Z,1.27
2023-04-03T21:03:31.691Z,1.63
2023-04-03T21:06:00.938Z,1.58
2023-04-03T21:09:06.701Z,1.85
2023-04-03T21:12:12.222Z,1.77
2023-04-03T21:15:18.012Z,1.70
2023-04-03T21:18:07.788Z,1.73
2023-04-03T21:20:37.238Z,1.23
2023-04-03T21:23:05.520Z,2.05
2023-04-03T21:25:33.878Z,2.20
2023-04-03T21:28:02.444Z,1.55
2023-04-03T21:30:31.484Z,1.65
2023-04-03T21:33:01.516Z,1.77
2023-04-03T21:35:30.772Z,1.77
2023-04-03T21:37:59.401Z,1.98
2023-04-03T21:40:27.768Z,1.80
2023-04-03T21:42:56.206Z,2.42
2023-04-03T21:45:24.496Z,1.95
2023-04-03T21:47:52.898Z,1.27
2023-04-03T21:50:22.714Z,1.92
2023-04-03T21:52:54.235Z,2.20
2023-04-03T21:55:22.567Z,1.70
2023-04-03T21:57:54.447Z,2.30
2023-04-03T22:00:24.091Z,2.38
2023-04-03T22:03:00.482Z,1.90
2023-04-03T22:05:37.843Z,2.20
2023-04-03T22:08:07.195Z,1.30
2023-04-03T22:10:35.570Z,1.88
2023-04-03T22:13:03.854Z,2.45
2023-04-03T22:15:32.102Z,1.90
2023-04-03T22:18:01.242Z,1.65
2023-04-03T22:20:29.574Z,2.10
2023-04-03T22:22:59.235Z,2.15
2023-04-03T22:25:27.496Z,1.93
2023-04-03T22:27:55.861Z,1.90
2023-04-03T22:30:24.146Z,2.03
2023-04-03T22:32:52.499Z,2.10
2023-04-03T22:35:21.491Z,2.33
2023-04-03T22:37:49.722Z,1.83
2023-04-03T22:40:19.668Z,2.10
2023-04-03T22:42:48.207Z,2.35
2023-04-03T22:45:16.802Z,2.60
2023-04-03T22:47:45.057Z,2.05
2023-04-03T22:50:13.839Z,2.33
2023-04-03T22:52:42.206Z,1.95
2023-04-03T22:55:19.471Z,2.20
2023-04-03T22:57:49.648Z,1.83
2023-04-03T23:00:18.282Z,2.40
2023-04-03T23:02:46.626Z,1.40
2023-04-03T23:05:15.405Z,2.05
2023-04-03T23:07:43.703Z,2.15
2023-04-03T23:10:12.656Z,2.75
2023-04-03T23:12:41.358Z,2.20
2023-04-03T23:15:11.514Z,2.30
2023-04-03T23:17:39.786Z,2.30
2023-04-03T23:20:09.765Z,2.33
2023-04-03T23:22:38.038Z,1.98
2023-04-03T23:25:07.596Z,2.38
2023-04-03T23:27:36.614Z,2.08
2023-04-03T23:30:05.726Z,1.90
2023-04-03T23:32:35.425Z,2.67
2023-04-03T23:35:03.942Z,2.00
2023-04-03T23:37:32.174Z,2.22
2023-04-03T23:40:02.246Z,1.95
2023-04-03T23:42:31.307Z,2.22
2023-04-03T23:44:59.612Z,2.30
2023-04-03T23:47:27.932Z,2.22
2023-04-03T23:49:58.510Z,2.17
2023-04-03T23:54:54.774Z,1.85
2023-04-03T23:57:23.106Z,2.08
2023-04-03T23:59:51.567Z,2.30
